Main page
METAR-TAF:

METAR-TAF

Airports :

Yüksekova, Turkey

Hakkari–Yüksekova Airport

latitude: 37-33-06N, longitude: 44-14-01E, elevation: 1950 m

Current weather observation

The report was made 1 hour and 0 minutes ago, at 08:50 UTC
Wind 3 kt from variable directions
Temperature 15°C
Humidity 21%
Pressure 1019 hPa
Visibility 10 km or more
no clouds below 1500 m and no cumulonimbus

METAR: LTCW 220850Z VRB03KT CAVOK 15/M07 Q1019

Time: 12:50 (09:50 UTC)

Forecast

The report was made 2 hours and 10 minutes ago, at 07:40 UTC
Forecast valid from 22 at 09 UTC to 22 at 18 UTC
Wind 2 kt from variable directions
Visibility 10 km or more
no clouds below 1500 m and no cumulonimbus
Becoming
from 22 at 09 UTC to 22 at 10 UTC
Wind 14 kt from the Southwest
Scattered clouds at a height of 4000 ft

TAF: LTCW 220740Z 2209/2218 VRB02KT CAVOK BECMG 2209/2210 22014KT SCT040

Weather observations and forecasts of more than 4000 airports (METAR and TAF reports).

The available stations are represented by yellow and red dots on the map.

Hover mouse over dot to see the name of the station.

Then click to see weather observations and forecasts.

To change the map : click on the green buttons with a black cross to zoom in, on the green button with a dash to zoom out, or on the green arrows for adjacent maps.


METAR-TAF: